Terminal Aerodrome Forecast
Issued by NWS

Home | Current Version | Previous Version | Graphics & Text | Print | Product List | Glossary Off
Versions: 1 2 3 4 5 6 7 8 9 10 11 12 13 14 15 16 17 18 19 20 21

000
FTUS43 KUNR 190520
TAFGCC
TAF
KGCC 190520Z 1906/2006 36015KT 2SM -SN BKN015 OVC030
     FM191600 03010KT 4SM -SN BKN025 OVC040
     FM200000 VRB05KT P6SM -SN BKN040 OVC080=

USA.gov is the U.S. government's official web portal to all federal, state and local government web resources and services.